Time;durP1;ratioP1;P1;durP2;ratioP2;P2;SDS_P1;SDS_P2;PMS_P1;PMS_P2;Temp;Humidity;BMP_temperature;BMP_pressure;BME280_temperature;BME280_humidity;BME280_pressure;Samples;Min_cycle;Max_cycle;Signal;HPM_P1;HPM_P2
2022/10/15 00:00:24;;;;;;;;;;;;;;;-142.75;100.00;76469.91;5073175;28;20420;-67
2022/10/15 00:02:49;;;;;;;;;;;;;;;-142.75;100.00;76481.72;5073192;28;19991;-69
2022/10/15 00:05:15;;;;;;;;;;;;;;;-142.75;100.00;76475.81;5071808;28;19916;-68
2022/10/15 00:07:40;;;;;;;;;;;;;;;-142.75;100.00;76479.75;5071433;28;19939;-69
2022/10/15 00:10:05;;;;;;;;;;;;;;;-142.75;100.00;76475.81;5073097;28;20382;-68
2022/10/15 00:12:31;;;;;;;;;;;;;;;-142.75;100.00;76483.69;5071665;28;20105;-68
2022/10/15 00:14:56;;;;;;;;;;;;;;;-142.75;100.00;76491.56;5073028;28;19908;-68
2022/10/15 00:17:21;;;;;;;;;;;;;;;-142.75;100.00;76485.66;5071340;28;20373;-68
2022/10/15 00:19:46;;;;;;;;;;;;;;;-142.75;100.00;76481.72;5072793;28;20011;-68
2022/10/15 00:22:12;;;;;;;;;;;;;;;-142.75;100.00;76481.72;5072709;28;19912;-68
2022/10/15 00:24:37;;;;;;;;;;;;;;;-142.75;100.00;76479.75;5071363;28;20049;-69
2022/10/15 00:27:02;;;;;;;;;;;;;;;-142.75;100.00;76475.81;5071317;28;19909;-68
2022/10/15 00:29:27;;;;;;;;;;;;;;;-142.75;100.00;76467.94;5072720;28;20269;-68
2022/10/15 00:31:53;;;;;;;;;;;;;;;-142.75;100.00;76477.78;5072798;28;19908;-68
2022/10/15 00:34:18;;;;;;;;;;;;;;;-142.75;100.00;76471.88;5071359;28;20383;-69
2022/10/15 00:36:44;;;;;;;;;;;;;;;-142.75;100.00;76471.88;5072314;28;19955;-68
2022/10/15 00:39:09;;;;;;;;;;;;;;;-142.75;100.00;76465.97;5072538;28;20295;-68
2022/10/15 00:41:36;;;;;;;;;;;;;;;-142.75;100.00;76467.94;5072609;28;19919;-68
2022/10/15 00:44:21;;;;;;;;;;;;;;;-142.75;100.00;76473.84;5072529;28;21277;-68
2022/10/15 00:47:06;;;;;;;;;;;;;;;-142.75;100.00;76487.63;5072157;28;19962;-68
2022/10/15 00:49:47;;;;;;;;;;;;;;;-142.75;100.00;76475.81;5072458;28;20366;-69
2022/10/15 00:52:12;;;;;;;;;;;;;;;-142.75;100.00;76471.88;5072430;28;19951;-68
2022/10/15 00:54:40;;;;;;;;;;;;;;;-142.75;100.00;76464.00;5072308;28;20452;-69
2022/10/15 00:57:06;;;;;;;;;;;;;;;-142.75;100.00;76464.00;5072047;28;19915;-68
2022/10/15 00:59:33;;;;;;;;;;;;;;;-142.75;100.00;76462.03;5071017;28;19912;-68
2022/10/15 01:01:59;;;;;;;;;;;;;;;-142.75;100.00;76469.91;5070967;28;20282;-67
2022/10/15 01:04:25;;;;;;;;;;;;;;;-142.75;100.00;76465.97;5071272;28;20247;-69
2022/10/15 01:06:50;;;;;;;;;;;;;;;-142.75;100.00;76456.13;5071995;28;19915;-68
2022/10/15 01:09:15;;;;;;;;;;;;;;;-142.75;100.00;76460.06;5072212;28;19915;-68
2022/10/15 01:11:40;;;;;;;;;;;;;;;-142.75;100.00;76454.16;5072187;28;20378;-69
2022/10/15 01:14:11;;;;;;;;;;;;;;;-142.75;100.00;76460.06;5072230;28;19916;-68
2022/10/15 01:16:46;;;;;;;;;;;;;;;-142.75;100.00;76454.16;5071822;28;19912;-68
2022/10/15 01:19:23;;;;;;;;;;;;;;;-142.75;100.00;76450.22;5072155;28;19912;-68
2022/10/15 01:21:53;;;;;;;;;;;;;;;-142.75;100.00;76452.19;5072247;28;19936;-68
2022/10/15 01:24:33;;;;;;;;;;;;;;;-142.75;100.00;76442.34;5070704;28;19919;-68
2022/10/15 01:26:59;;;;;;;;;;;;;;;-142.75;100.00;76436.44;5070493;28;19915;-68
2022/10/15 01:29:44;;;;;;;;;;;;;;;-142.75;100.00;76440.38;5072183;28;20343;-69
2022/10/15 01:32:18;;;;;;;;;;;;;;;-142.75;100.00;76436.44;5072118;28;19909;-69
2022/10/15 01:34:50;;;;;;;;;;;;;;;-142.75;100.00;76432.50;5070744;28;19915;-68
2022/10/15 01:37:25;;;;;;;;;;;;;;;-142.75;100.00;76428.56;5071734;28;19913;-68
2022/10/15 01:39:53;;;;;;;;;;;;;;;-142.75;100.00;76428.56;5070544;28;19912;-68
2022/10/15 01:42:28;;;;;;;;;;;;;;;-142.75;100.00;76424.63;5070695;28;19951;-68
2022/10/15 01:44:56;;;;;;;;;;;;;;;-142.75;100.00;76416.75;5071872;28;19908;-68
2022/10/15 01:47:43;;;;;;;;;;;;;;;-142.75;100.00;76416.75;5070319;28;19909;-69
2022/10/15 01:50:10;;;;;;;;;;;;;;;-142.75;100.00;76414.78;5071886;28;19908;-68
2022/10/15 01:52:37;;;;;;;;;;;;;;;-142.75;100.00;76412.81;5070876;28;20273;-68
2022/10/15 01:55:05;;;;;;;;;;;;;;;-142.75;100.00;76401.00;5070494;28;19909;-68
2022/10/15 01:57:31;;;;;;;;;;;;;;;-142.75;100.00;76399.03;5071769;28;20261;-68
2022/10/15 01:59:57;;;;;;;;;;;;;;;-142.75;100.00;76410.84;5071730;28;19913;-68
2022/10/15 02:02:22;;;;;;;;;;;;;;;-142.75;100.00;76397.06;5071724;28;19920;-68
2022/10/15 02:04:47;;;;;;;;;;;;;;;-142.75;100.00;76401.00;5071670;28;19915;-68
2022/10/15 02:07:19;;;;;;;;;;;;;;;-142.75;100.00;76416.75;5070076;28;19962;-68
2022/10/15 02:09:57;;;;;;;;;;;;;;;-142.75;100.00;76410.84;5071977;28;20375;-68
2022/10/15 02:12:28;;;;;;;;;;;;;;;-142.75;100.00;76404.94;5070391;28;19912;-69
2022/10/15 02:15:00;;;;;;;;;;;;;;;-142.75;100.00;76402.97;5071555;28;19908;-68
2022/10/15 02:17:39;;;;;;;;;;;;;;;-142.75;100.00;76401.00;5071835;28;20078;-68
2022/10/15 02:20:05;;;;;;;;;;;;;;;-142.75;100.00;76410.84;5075124;28;19967;-68
2022/10/15 02:22:33;;;;;;;;;;;;;;;-142.75;100.00;76401.00;5075120;28;19947;-68
2022/10/15 02:25:13;;;;;;;;;;;;;;;-142.75;100.00;76412.81;5074903;28;19912;-68
2022/10/15 02:27:39;;;;;;;;;;;;;;;-142.75;100.00;76414.78;5073534;28;19908;-68
2022/10/15 02:30:07;;;;;;;;;;;;;;;-142.75;100.00;76408.88;5075034;28;19915;-68
2022/10/15 02:32:34;;;;;;;;;;;;;;;-142.75;100.00;76399.03;5074983;28;19912;-68
2022/10/15 02:35:00;;;;;;;;;;;;;;;-142.75;100.00;76387.22;5073597;28;19916;-68
2022/10/15 02:37:26;;;;;;;;;;;;;;;-142.75;100.00;76379.34;5074544;28;20369;-69
2022/10/15 02:39:52;;;;;;;;;;;;;;;-142.75;100.00;76389.19;5074666;28;20403;-68
2022/10/15 02:42:17;;;;;;;;;;;;;;;-142.75;100.00;76377.38;5074801;28;19908;-68
2022/10/15 02:44:42;;;;;;;;;;;;;;;-142.75;100.00;76387.22;5074694;28;19916;-68
2022/10/15 02:47:08;;;;;;;;;;;;;;;-142.75;100.00;76377.38;5074444;28;19948;-69
2022/10/15 02:49:33;;;;;;;;;;;;;;;-142.75;100.00;76375.41;5074687;28;19914;-68
2022/10/15 02:51:59;;;;;;;;;;;;;;;-142.75;100.00;76379.34;5074604;28;19908;-68
2022/10/15 02:54:24;;;;;;;;;;;;;;;-142.75;100.00;76369.50;5072930;28;19919;-69
2022/10/15 02:56:49;;;;;;;;;;;;;;;-142.75;100.00;76369.50;5074242;28;20274;-68
2022/10/15 02:59:14;;;;;;;;;;;;;;;-142.75;100.00;76367.53;5074462;28;20251;-69
2022/10/15 03:01:39;;;;;;;;;;;;;;;-142.75;100.00;76363.59;5074371;28;20004;-68
2022/10/15 03:04:05;;;;;;;;;;;;;;;-142.75;100.00;76373.44;5072887;28;20014;-67
2022/10/15 03:06:30;;;;;;;;;;;;;;;-142.75;100.00;76373.44;5074104;28;19908;-68
2022/10/15 03:08:55;;;;;;;;;;;;;;;-142.75;100.00;76377.38;5074048;28;20038;-68
2022/10/15 03:11:20;;;;;;;;;;;;;;;-142.75;100.00;76379.34;5074252;28;20121;-68
2022/10/15 03:13:46;;;;;;;;;;;;;;;-142.75;100.00;76389.19;5072844;28;19982;-68
2022/10/15 03:16:11;;;;;;;;;;;;;;;-142.75;100.00;76377.38;5072765;28;19916;-68
2022/10/15 03:18:37;;;;;;;;;;;;;;;-142.75;100.00;76377.38;5073910;28;19923;-68
2022/10/15 03:21:02;;;;;;;;;;;;;;;-142.75;100.00;76381.31;5074060;28;19917;-69
2022/10/15 03:23:27;;;;;;;;;;;;;;;-142.75;100.00;76375.41;5072610;28;20006;-68
2022/10/15 03:25:53;;;;;;;;;;;;;;;-142.75;100.00;76381.31;5073810;28;19922;-68
2022/10/15 03:28:19;;;;;;;;;;;;;;;-142.75;100.00;76373.44;5073539;28;19962;-68
2022/10/15 03:30:44;;;;;;;;;;;;;;;-142.75;100.00;76373.44;5072966;28;19912;-68
2022/10/15 03:33:09;;;;;;;;;;;;;;;-142.75;100.00;76367.53;5073927;28;19999;-69
2022/10/15 03:35:34;;;;;;;;;;;;;;;-142.75;100.00;76363.59;5073795;28;19990;-68
2022/10/15 03:38:00;;;;;;;;;;;;;;;-142.75;100.00;76361.63;5073357;28;19951;-68
2022/10/15 03:40:25;;;;;;;;;;;;;;;-142.75;100.00;76361.63;5073601;28;19920;-68
2022/10/15 03:42:50;;;;;;;;;;;;;;;-142.75;100.00;76361.63;5073655;28;19915;-68
2022/10/15 03:45:16;;;;;;;;;;;;;;;-142.75;100.00;76357.69;5072156;28;20006;-68
2022/10/15 03:47:41;;;;;;;;;;;;;;;-142.75;100.00;76365.56;5073298;28;19958;-68
2022/10/15 03:50:07;;;;;;;;;;;;;;;-142.75;100.00;76369.50;5073465;28;19908;-68
2022/10/15 03:52:32;;;;;;;;;;;;;;;-142.75;100.00;76381.31;5072074;28;19916;-68
2022/10/15 03:54:57;;;;;;;;;;;;;;;-142.75;100.00;76389.19;5073327;28;20058;-66
2022/10/15 03:57:22;;;;;;;;;;;;;;;-142.75;100.00;76402.97;5073023;28;19908;-69
2022/10/15 03:59:47;;;;;;;;;;;;;;;-142.75;100.00;76408.88;5073223;28;19919;-68
2022/10/15 04:02:13;;;;;;;;;;;;;;;-142.75;100.00;76406.91;5073208;28;19909;-68
2022/10/15 04:04:38;;;;;;;;;;;;;;;-142.75;100.00;76418.72;5073150;28;19908;-68
2022/10/15 04:07:03;;;;;;;;;;;;;;;-142.75;100.00;76426.59;5071467;28;20013;-68
2022/10/15 04:09:28;;;;;;;;;;;;;;;-142.75;100.00;76440.38;5071776;28;20354;-68
2022/10/15 04:11:53;;;;;;;;;;;;;;;-142.75;100.00;76440.38;5073086;28;19908;-68
2022/10/15 04:14:19;;;;;;;;;;;;;;;-142.75;100.00;76448.25;5072943;28;19962;-68
2022/10/15 04:16:44;;;;;;;;;;;;;;;-142.75;100.00;76452.19;5071458;28;19908;-68
2022/10/15 04:19:09;;;;;;;;;;;;;;;-142.75;100.00;76458.09;5072924;28;19931;-68
2022/10/15 04:21:34;;;;;;;;;;;;;;;-142.75;100.00;76436.44;5072720;28;19912;-68
2022/10/15 04:23:59;;;;;;;;;;;;;;;-142.75;100.00;76436.44;5072539;28;19920;-69
2022/10/15 04:26:25;;;;;;;;;;;;;;;-142.75;100.00;76434.47;5072751;28;19912;-68
2022/10/15 04:28:50;;;;;;;;;;;;;;;-142.75;100.00;76428.56;5072547;28;19908;-68
2022/10/15 04:31:15;;;;;;;;;;;;;;;-142.75;100.00;76430.53;5072726;28;20294;-68
2022/10/15 04:33:40;;;;;;;;;;;;;;;-142.75;100.00;76438.41;5071796;28;19912;-68
2022/10/15 04:36:07;;;;;;;;;;;;;;;-142.75;100.00;76430.53;5072526;28;19916;-69
2022/10/15 04:38:32;;;;;;;;;;;;;;;-142.75;100.00;76424.63;5072249;28;19965;-69
2022/10/15 04:41:03;;;;;;;;;;;;;;;-142.75;100.00;76424.63;5072243;28;19916;-69
2022/10/15 04:43:28;;;;;;;;;;;;;;;-142.75;100.00;76420.69;5071348;28;20385;-68
2022/10/15 04:46:00;;;;;;;;;;;;;;;-142.75;100.00;76414.78;5072474;28;19954;-69
2022/10/15 04:48:29;;;;;;;;;;;;;;;-142.75;100.00;76412.81;5072216;28;20404;-69
2022/10/15 04:50:55;;;;;;;;;;;;;;;-142.75;100.00;76406.91;5071074;28;19915;-69
2022/10/15 04:53:20;;;;;;;;;;;;;;;-142.75;100.00;76402.97;5071136;28;20332;-69
2022/10/15 04:55:46;;;;;;;;;;;;;;;-142.75;100.00;76397.06;5070725;28;20007;-68
2022/10/15 04:58:11;;;;;;;;;;;;;;;-142.75;100.00;76404.94;5072093;28;19912;-68
2022/10/15 05:00:37;;;;;;;;;;;;;;;-142.75;100.00;76399.03;5072311;28;19918;-69
2022/10/15 05:03:03;;;;;;;;;;;;;;;-142.75;100.00;76401.00;5072364;28;20400;-68
2022/10/15 05:05:28;;;;;;;;;;;;;;;-142.75;100.00;76383.28;5072122;28;19908;-68
2022/10/15 05:07:54;;;;;;;;;;;;;;;-142.75;100.00;76379.34;5072061;28;19908;-69
2022/10/15 05:10:19;;;;;;;;;;;;;;;-142.75;100.00;76375.41;5072297;28;19909;-69
2022/10/15 05:12:44;;;;;;;;;;;;;;;-142.75;100.00;76385.25;5072273;28;20278;-69
2022/10/15 05:15:09;;;;;;;;;;;;;;;-142.75;100.00;76385.25;5072164;28;20057;-68
2022/10/15 05:17:35;;;;;;;;;;;;;;;-142.75;100.00;76393.13;5071949;28;19908;-69
2022/10/15 05:20:00;;;;;;;;;;;;;;;-142.75;100.00;76393.13;5072042;28;20007;-68
2022/10/15 05:22:25;;;;;;;;;;;;;;;-142.75;100.00;76397.06;5072131;28;19914;-69
2022/10/15 05:24:50;;;;;;;;;;;;;;;-142.75;100.00;76397.06;5094840;22;19951;-66
2022/10/15 05:27:16;;;;;;;;;;;;;;;-142.75;100.00;76401.00;5090042;28;20403;-66
2022/10/15 05:29:41;;;;;;;;;;;;;;;-142.75;100.00;76397.06;5091380;28;19914;-68
2022/10/15 05:32:06;;;;;;;;;;;;;;;-142.75;100.00;76410.84;5092260;28;19908;-68
2022/10/15 05:34:32;;;;;;;;;;;;;;;-142.75;100.00;76412.81;5074038;28;19912;-68
2022/10/15 05:36:57;;;;;;;;;;;;;;;-142.75;100.00;76401.00;5091890;28;19908;-68
2022/10/15 05:39:22;;;;;;;;;;;;;;;-142.75;100.00;76393.13;5078686;28;19912;-68
2022/10/15 05:41:48;;;;;;;;;;;;;;;-142.75;100.00;76393.13;5061904;28;19913;-68
2022/10/15 05:44:13;;;;;;;;;;;;;;;-142.75;100.00;76393.13;5054042;28;19912;-67
2022/10/15 05:46:39;;;;;;;;;;;;;;;-142.75;100.00;76397.06;5070221;28;19908;-68
2022/10/15 05:49:04;;;;;;;;;;;;;;;-142.75;100.00;76393.13;5071884;28;19909;-68
2022/10/15 05:51:29;;;;;;;;;;;;;;;-142.75;100.00;76401.00;5071890;28;20286;-68
2022/10/15 05:53:55;;;;;;;;;;;;;;;-142.75;100.00;76393.13;5074700;28;19912;-68
2022/10/15 05:56:21;;;;;;;;;;;;;;;-142.75;100.00;76416.75;5065789;28;19909;-68
2022/10/15 05:58:46;;;;;;;;;;;;;;;-142.75;100.00;76399.03;5055380;28;19912;-68
2022/10/15 06:01:12;;;;;;;;;;;;;;;-142.75;100.00;76395.09;5055506;28;19913;-67
2022/10/15 06:03:38;;;;;;;;;;;;;;;-142.75;100.00;76397.06;5055485;28;20003;-67
2022/10/15 06:06:03;;;;;;;;;;;;;;;-142.75;100.00;76395.09;5055373;28;19909;-67
2022/10/15 06:08:29;;;;;;;;;;;;;;;-142.75;100.00;76389.19;5055042;28;19966;-68
2022/10/15 06:10:55;;;;;;;;;;;;;;;-142.75;100.00;76385.25;5055416;28;19919;-68
2022/10/15 06:13:21;;;;;;;;;;;;;;;-142.75;100.00;76385.25;5055325;28;19916;-68
2022/10/15 06:15:46;;;;;;;;;;;;;;;-142.75;100.00;76375.41;5055242;28;19909;-68
2022/10/15 06:18:14;;;;;;;;;;;;;;;-142.75;100.00;76373.44;5054888;28;19934;-68
2022/10/15 06:20:39;;;;;;;;;;;;;;;-142.75;100.00;76365.56;5055135;28;19987;-68
2022/10/15 06:23:05;;;;;;;;;;;;;;;-142.75;100.00;76369.50;5055154;28;20370;-68
2022/10/15 06:25:30;;;;;;;;;;;;;;;-142.75;100.00;76363.59;5054960;28;19913;-68
2022/10/15 06:27:59;;;;;;;;;;;;;;;-142.75;100.00;76377.38;5054723;28;19938;-68
2022/10/15 06:30:24;;;;;;;;;;;;;;;-142.75;100.00;76369.50;5054877;28;19913;-67
2022/10/15 06:32:50;;;;;;;;;;;;;;;-142.75;100.00;76365.56;5054989;28;19908;-68
2022/10/15 06:35:16;;;;;;;;;;;;;;;-142.75;100.00;76363.59;5054823;28;19909;-68
2022/10/15 06:37:42;;;;;;;;;;;;;;;-142.75;100.00;76371.47;5036711;28;19908;-68
2022/10/15 06:40:08;;;;;;;;;;;;;;;-142.75;100.00;76365.56;5054813;28;19959;-67
2022/10/15 06:42:33;;;;;;;;;;;;;;;-142.75;100.00;76359.66;5054714;28;20000;-68
2022/10/15 06:44:58;;;;;;;;;;;;;;;-142.75;100.00;76373.44;5054718;28;19909;-67
2022/10/15 06:47:23;;;;;;;;;;;;;;;-142.75;100.00;76375.41;5054378;28;20374;-68
2022/10/15 06:49:48;;;;;;;;;;;;;;;-142.75;100.00;76385.25;5054866;28;19909;-67
2022/10/15 06:52:14;;;;;;;;;;;;;;;-142.75;100.00;76377.38;5057259;28;19991;-67
2022/10/15 06:54:39;;;;;;;;;;;;;;;-142.75;100.00;76393.13;5055671;28;20381;-67
2022/10/15 06:57:05;;;;;;;;;;;;;;;-142.75;100.00;76373.44;5054241;28;20277;-68
2022/10/15 06:59:30;;;;;;;;;;;;;;;-142.75;100.00;76373.44;5036525;28;19909;-67
2022/10/15 07:01:55;;;;;;;;;;;;;;;-142.75;100.00;76381.31;5054403;28;19993;-68
2022/10/15 07:04:21;;;;;;;;;;;;;;;-142.75;100.00;76395.09;5054289;28;19959;-67
2022/10/15 07:06:46;;;;;;;;;;;;;;;-142.75;100.00;76387.22;5036252;28;19913;-67
2022/10/15 07:09:12;;;;;;;;;;;;;;;-142.75;100.00;76401.00;5061711;28;19919;-67
2022/10/15 07:11:37;;;;;;;;;;;;;;;-142.75;100.00;76393.13;5074281;28;19908;-68
2022/10/15 07:14:02;;;;;;;;;;;;;;;-142.75;100.00;76391.16;5074266;28;19915;-67
2022/10/15 07:16:27;;;;;;;;;;;;;;;-142.75;100.00;76393.13;5074011;28;19913;-67
2022/10/15 07:18:52;;;;;;;;;;;;;;;-142.75;100.00;76381.31;5073917;28;19914;-67
2022/10/15 07:21:18;;;;;;;;;;;;;;;-142.75;100.00;76389.19;5073953;28;20411;-67
2022/10/15 07:23:43;;;;;;;;;;;;;;;-142.75;100.00;76385.25;5074064;28;19962;-67
2022/10/15 07:26:08;;;;;;;;;;;;;;;-142.75;100.00;76387.22;5073826;28;19975;-67
2022/10/15 07:28:33;;;;;;;;;;;;;;;-142.75;100.00;76389.19;5073665;28;19923;-67
2022/10/15 07:31:00;;;;;;;;;;;;;;;-142.75;100.00;76373.44;5061245;28;19921;-66
2022/10/15 07:33:25;;;;;;;;;;;;;;;-142.75;100.00;76377.38;5053846;28;19944;-66
2022/10/15 07:35:50;;;;;;;;;;;;;;;-142.75;100.00;76375.41;5061861;28;19913;-64
2022/10/15 07:38:16;;;;;;;;;;;;;;;-142.75;100.00;76363.59;5054453;28;19912;-64
2022/10/15 07:40:42;;;;;;;;;;;;;;;-142.75;100.00;76377.38;5048918;28;20315;-64
2022/10/15 07:43:07;;;;;;;;;;;;;;;-142.75;100.00;76371.47;5057365;28;20046;-64
2022/10/15 07:45:32;;;;;;;;;;;;;;;-142.75;100.00;76357.69;5057925;28;20397;-64
2022/10/15 07:47:57;;;;;;;;;;;;;;;-142.75;100.00;76345.91;5057361;28;19944;-63
2022/10/15 07:50:22;;;;;;;;;;;;;;;-142.75;100.00;76340.00;5061307;28;19924;-63
2022/10/15 07:52:47;;;;;;;;;;;;;;;-142.75;100.00;76334.09;5059621;28;20385;-64
2022/10/15 07:55:13;;;;;;;;;;;;;;;-142.75;100.00;76302.59;5057293;28;19917;-64
2022/10/15 07:57:38;;;;;;;;;;;;;;;-142.75;100.00;76286.84;5058090;28;19924;-64
2022/10/15 08:00:04;;;;;;;;;;;;;;;-142.75;100.00;76251.41;5057625;28;19932;-63
2022/10/15 08:02:29;;;;;;;;;;;;;;;-142.75;100.00;76237.63;5059747;28;19966;-64
2022/10/15 08:04:54;;;;;;;;;;;;;;;-142.75;100.00;76217.94;5056175;28;19916;-64
2022/10/15 08:07:20;;;;;;;;;;;;;;;-142.75;100.00;76196.31;5057880;28;20587;-64
2022/10/15 08:09:45;;;;;;;;;;;;;;;-142.75;100.00;76188.44;5055328;28;19944;-64
2022/10/15 08:12:10;;;;;;;;;;;;;;;-142.75;100.00;76176.63;5061441;28;19924;-64
2022/10/15 08:14:35;;;;;;;;;;;;;;;-142.75;100.00;76154.97;5056088;28;19939;-64
2022/10/15 08:17:02;;;;;;;;;;;;;;;-142.75;100.00;76149.06;5060644;28;19970;-64
2022/10/15 08:19:27;;;;;;;;;;;;;;;-142.75;100.00;76149.06;5056845;28;19916;-65
2022/10/15 08:21:53;;;;;;;;;;;;;;;-142.75;100.00;76151.03;5058854;28;19974;-63
2022/10/15 08:24:18;;;;;;;;;;;;;;;-142.75;100.00;76160.88;5057205;28;20409;-64
2022/10/15 08:26:43;;;;;;;;;;;;;;;-142.75;100.00;76141.19;5054598;28;20023;-64
2022/10/15 08:29:09;;;;;;;;;;;;;;;-142.75;100.00;76129.38;5061086;28;20270;-64
2022/10/15 08:31:34;;;;;;;;;;;;;;;-142.75;100.00;76113.63;5052970;28;20444;-64
2022/10/15 08:34:00;;;;;;;;;;;;;;;-142.75;100.00;76078.19;5053799;28;19917;-64
2022/10/15 08:36:25;;;;;;;;;;;;;;;-142.75;100.00;76082.13;5055406;28;20737;-64
2022/10/15 08:38:50;;;;;;;;;;;;;;;-142.75;100.00;76093.94;5052204;28;20549;-64
2022/10/15 08:41:35;;;;;;;;;;;;;;;-142.75;100.00;76113.63;5051442;28;20070;-64
2022/10/15 08:44:01;;;;;;;;;;;;;;;-142.75;100.00;76125.44;5050838;28;19924;-64
2022/10/15 08:46:37;;;;;;;;;;;;;;;-142.75;100.00;76127.41;5051174;28;19917;-64
2022/10/15 08:49:03;;;;;;;;;;;;;;;-142.75;100.00;76103.78;5071402;28;19916;-64
2022/10/15 08:51:49;;;;;;;;;;;;;;;-142.75;100.00;76119.53;5071365;28;20293;-64
2022/10/15 08:54:16;;;;;;;;;;;;;;;-142.75;100.00;76125.44;5070666;28;19927;-64
2022/10/15 08:56:47;;;;;;;;;;;;;;;-142.75;100.00;76125.44;5070924;28;19917;-64
2022/10/15 08:59:31;;;;;;;;;;;;;;;-142.75;100.00;76145.13;5070971;28;19916;-64
2022/10/15 09:02:03;;;;;;;;;;;;;;;-142.75;100.00;76178.59;5053529;28;20302;-64
2022/10/15 09:04:41;;;;;;;;;;;;;;;-142.75;100.00;76210.06;5071266;28;19924;-64
2022/10/15 09:07:20;;;;;;;;;;;;;;;-142.75;100.00;76208.09;5071138;28;19916;-64
2022/10/15 09:10:11;;;;;;;;;;;;;;;-142.75;100.00;76182.53;5071333;28;20436;-64
2022/10/15 09:12:48;;;;;;;;;;;;;;;-142.75;100.00;76160.88;5055916;28;19917;-66
2022/10/15 09:15:15;;;;;;;;;;;;;;;-142.75;100.00;76188.44;5050863;28;19917;-64
2022/10/15 09:17:41;;;;;;;;;;;;;;;-142.75;100.00;76190.41;5050778;28;19923;-64
2022/10/15 09:20:13;;;;;;;;;;;;;;;-142.75;100.00;76186.47;5050791;28;19924;-64
2022/10/15 09:22:38;;;;;;;;;;;;;;;-142.75;100.00;76188.44;5069964;28;19969;-65
2022/10/15 09:25:15;;;;;;;;;;;;;;;-142.75;100.00;76198.28;5070812;28;20331;-64
2022/10/15 09:27:41;;;;;;;;;;;;;;;-142.75;100.00;76188.44;5071570;28;19962;-64
2022/10/15 09:30:06;;;;;;;;;;;;;;;-142.75;100.00;76184.50;5057078;28;19924;-64
2022/10/15 09:32:39;;;;;;;;;;;;;;;-142.75;100.00;76172.69;5075093;28;19916;-64
2022/10/15 09:35:04;;;;;;;;;;;;;;;-142.75;100.00;76170.72;5075111;28;19921;-65
2022/10/15 09:37:52;;;;;;;;;;;;;;;-142.75;100.00;76156.94;5074680;28;19923;-65
2022/10/15 09:40:27;;;;;;;;;;;;;;;-142.75;100.00;76160.88;5066463;28;19928;-65
2022/10/15 09:42:53;;;;;;;;;;;;;;;-142.75;100.00;76164.81;5074649;28;19992;-65
2022/10/15 09:45:19;;;;;;;;;;;;;;;-142.75;100.00;76164.81;5074727;28;19970;-65
2022/10/15 09:47:45;;;;;;;;;;;;;;;-142.75;100.00;76156.94;5074455;28;19920;-65
2022/10/15 09:50:11;;;;;;;;;;;;;;;-142.75;100.00;76149.06;5074306;28;20160;-65
2022/10/15 09:52:49;;;;;;;;;;;;;;;-142.75;100.00;76143.16;5068178;28;19967;-64
2022/10/15 09:55:20;;;;;;;;;;;;;;;-142.75;100.00;76156.94;5054504;28;19921;-64
2022/10/15 09:57:49;;;;;;;;;;;;;;;-142.75;100.00;76149.06;5038121;28;19924;-65
2022/10/15 10:00:14;;;;;;;;;;;;;;;-142.75;100.00;76151.03;5074299;28;19963;-65
2022/10/15 10:02:39;;;;;;;;;;;;;;;-142.75;100.00;76149.06;5074431;28;19959;-65
2022/10/15 10:05:19;;;;;;;;;;;;;;;-142.75;100.00;76143.16;5074632;28;19922;-65
2022/10/15 10:07:44;;;;;;;;;;;;;;;-142.75;100.00;76131.34;5074152;28;19964;-66
2022/10/15 10:10:30;;;;;;;;;;;;;;;-142.75;100.00;76147.09;5073129;28;19952;-64
2022/10/15 10:12:55;;;;;;;;;;;;;;;-142.75;100.00;76151.03;5072247;28;19924;-65
2022/10/15 10:15:21;;;;;;;;;;;;;;;-142.75;100.00;76158.91;5073175;28;20298;-65
2022/10/15 10:17:53;;;;;;;;;;;;;;;-142.75;100.00;76147.09;5072513;28;19916;-65
2022/10/15 10:20:19;;;;;;;;;;;;;;;-142.75;100.00;76139.22;5072625;28;19921;-65
2022/10/15 10:22:47;;;;;;;;;;;;;;;-142.75;100.00;76135.28;5055566;28;19923;-65
2022/10/15 10:25:27;;;;;;;;;;;;;;;-142.75;100.00;76149.06;5074155;28;19935;-64
2022/10/15 10:27:55;;;;;;;;;;;;;;;-142.75;100.00;76133.31;5073759;28;19940;-65
2022/10/15 10:30:21;;;;;;;;;;;;;;;-142.75;100.00;76131.34;5073884;28;20409;-65
2022/10/15 10:32:46;;;;;;;;;;;;;;;-142.75;100.00;76135.28;5073760;28;19923;-65
2022/10/15 10:35:19;;;;;;;;;;;;;;;-142.75;100.00;76135.28;5073723;28;19959;-65
2022/10/15 10:37:44;;;;;;;;;;;;;;;-142.75;100.00;76109.69;5073830;28;19928;-65
2022/10/15 10:40:21;;;;;;;;;;;;;;;-142.75;100.00;76109.69;5073130;28;19920;-65
2022/10/15 10:42:46;;;;;;;;;;;;;;;-142.75;100.00;76111.66;5073680;28;19923;-65
2022/10/15 10:45:17;;;;;;;;;;;;;;;-142.75;100.00;76107.72;5073745;28;19916;-65
2022/10/15 10:47:42;;;;;;;;;;;;;;;-142.75;100.00;76097.88;5073271;28;19974;-65
2022/10/15 10:50:25;;;;;;;;;;;;;;;-142.75;100.00;76091.97;5073566;28;19951;-65
2022/10/15 10:52:51;;;;;;;;;;;;;;;-142.75;100.00;76093.94;5073532;28;19923;-65
2022/10/15 10:55:17;;;;;;;;;;;;;;;-142.75;100.00;76086.06;5073361;28;19917;-66
2022/10/15 10:57:45;;;;;;;;;;;;;;;-142.75;100.00;76093.94;5073076;28;19932;-66
2022/10/15 11:00:13;;;;;;;;;;;;;;;-142.75;100.00;76080.16;5073167;28;19921;-65
2022/10/15 11:02:42;;;;;;;;;;;;;;;-142.75;100.00;76070.34;5073302;28;19986;-65
2022/10/15 11:05:08;;;;;;;;;;;;;;;-142.75;100.00;76072.31;5073196;28;19924;-65
2022/10/15 11:07:48;;;;;;;;;;;;;;;-142.75;100.00;76068.38;5072919;28;19916;-65
2022/10/15 11:10:49;;;;;;;;;;;;;;;-142.75;100.00;76070.34;5073238;28;19923;-65
2022/10/15 11:13:17;;;;;;;;;;;;;;;-142.75;100.00;76066.41;5010986;28;20379;-67
2022/10/15 11:15:55;;;;;;;;;;;;;;;-142.75;100.00;76044.75;5061070;28;19916;-65
2022/10/15 11:18:39;;;;;;;;;;;;;;;-142.75;100.00;76050.66;5072635;28;19917;-65
2022/10/15 11:21:11;;;;;;;;;;;;;;;-142.75;100.00;76036.88;5072925;28;19921;-66
2022/10/15 11:24:08;;;;;;;;;;;;;;;-142.75;100.00;76023.09;5073052;28;19920;-65
2022/10/15 11:26:57;;;;;;;;;;;;;;;-142.75;100.00;76046.72;5084585;23;19924;-66
2022/10/15 11:29:40;;;;;;;;;;;;;;;-142.75;100.00;76027.03;5091385;28;19924;-68
2022/10/15 11:32:27;;;;;;;;;;;;;;;-142.75;100.00;76007.34;5093022;28;19916;-68
2022/10/15 11:35:11;;;;;;;;;;;;;;;-142.75;100.00;75995.53;5074724;28;19939;-68
2022/10/15 11:37:36;;;;;;;;;;;;;;;-142.75;100.00;75979.78;5091881;28;20002;-68
2022/10/15 11:40:19;;;;;;;;;;;;;;;-142.75;100.00;75979.78;5073218;28;19920;-68
2022/10/15 11:42:44;;;;;;;;;;;;;;;-142.75;100.00;75971.91;5090799;28;19923;-68
2022/10/15 11:45:25;;;;;;;;;;;;;;;-142.75;100.00;75960.13;5072482;28;20006;-68
2022/10/15 11:48:10;;;;;;;;;;;;;;;-142.75;100.00;75956.19;5090256;28;19923;-66
2022/10/15 11:50:40;;;;;;;;;;;;;;;-142.75;100.00;75950.28;5089368;28;19920;-66
2022/10/15 11:53:21;;;;;;;;;;;;;;;-142.75;100.00;75956.19;5072478;28;19916;-68
2022/10/15 11:55:55;;;;;;;;;;;;;;;-142.75;100.00;75944.38;5082908;28;19920;-68
2022/10/15 11:58:30;;;;;;;;;;;;;;;-142.75;100.00;75932.56;5070021;28;20386;-68
2022/10/15 12:00:59;;;;;;;;;;;;;;;-142.75;100.00;75956.19;5071395;28;19920;-68
2022/10/15 12:03:26;;;;;;;;;;;;;;;-142.75;100.00;75940.44;5062156;28;20366;-68
2022/10/15 12:05:51;;;;;;;;;;;;;;;-142.75;100.00;75932.56;5064740;28;19916;-68
2022/10/15 12:08:18;;;;;;;;;;;;;;;-142.75;100.00;75920.75;5089759;28;19973;-68
2022/10/15 12:11:01;;;;;;;;;;;;;;;-142.75;100.00;75908.94;5089599;28;20355;-69
2022/10/15 12:13:32;;;;;;;;;;;;;;;-142.75;100.00;75908.94;5089450;28;19916;-68
2022/10/15 12:16:00;;;;;;;;;;;;;;;-142.75;100.00;75893.19;5071389;28;20346;-67
2022/10/15 12:18:35;;;;;;;;;;;;;;;-142.75;100.00;75895.16;5089223;28;19920;-67
2022/10/15 12:21:01;;;;;;;;;;;;;;;-142.75;100.00;75889.25;5071129;28;19920;-68
2022/10/15 12:23:35;;;;;;;;;;;;;;;-142.75;100.00;75891.22;5071343;28;19917;-69